Aérodrome :
LOGIN :

S'inscrire | Disclaimer

   EN    FR    IT 

 










Légende :    VFR   VFR Marginal   IFR   IFR Intensif   IFR Très Intensif
Visi : 
Plafond : 
>= 8 km
>= 3000ft
5 à 8 km
1000 à 3000 ft
1500m à 5 km
500 à 1000 ft
800 à 1500m
200 à 500 ft
< 800m
< 200 ft
Symboles :   Orages  Brouillard  Fortes neiges  Fortes précipitations  Vent > 20 kt
SIGMETs :   Divers  Orages  Givrage  Turbulence  Onde Orograph.  Cendres Volcan.







- Altitude de l'aérodrome : 1020 ft
- Code IATA : ILZ


LZZI - Žilina

DERNIER METAR :
  • 210749Z 07005KT 040V100 CAVOK 14/02 Q1023

METARs EXPIRÉS :
  • 210730Z 05004KT CAVOK 12/01 Q1023
  • 210720Z 05004KT CAVOK 12/02 Q1023
  • 210700Z 07005KT 040V100 CAVOK 10/00 Q1024
  • 210648Z 08004KT 040V110 CAVOK 10/01 Q1024
  • 210630Z 07005KT CAVOK 08/00 Q1024
  • 210618Z 08005KT CAVOK 08/00 Q1024
  • 210600Z 09003KT 060V120 CAVOK 06/M01 Q1024
  • 210530Z 10004KT CAVOK 05/M01 Q1024
  • 210500Z VRB01KT CAVOK 04/M01 Q1024

TAF TAF LZZI
Valide du 21 à 06h jusqu'au 21 à 15h UTC


210500Z 2106/2115 VRB02KT CAVOK
BECMG 2108/2110 05008KT
Pas de NOTAMs connus pour ce terrain.



MET'MAP, la Météo Aéronautique d'un coup d'oeil ! - Copyright ORBIFLY Décembre 2007 - Disclaimer

ORBIFLY MET'MAP TEAM :

Programmation & Développement : Alexandra Zaïnal
Conception & Développement : Baudouin d'Aumeries
Co-Programmation & Développement : Marc-Olivier Méhu
Soutien technique & logistique : Manuel Goepfert

Contact : metmap@orbifly.com




SOURCES & CREDITS :

   NOAA